createdAt,value
2023-09-09T00:00:38.301Z,34.65
2023-09-09T00:03:06.602Z,34.84
2023-09-09T00:05:34.996Z,34.79
2023-09-09T00:15:39.780Z,35.58
2023-09-09T00:18:07.496Z,35.79
2023-09-09T00:20:40.516Z,35.79
2023-09-09T00:23:11.166Z,35.75
2023-09-09T00:25:39.262Z,35.28
2023-09-09T00:28:07.652Z,35.26
2023-09-09T00:30:35.401Z,35.21
2023-09-09T00:33:04.004Z,35.00
2023-09-09T00:35:34.212Z,35.05
2023-09-09T00:38:02.206Z,35.00
2023-09-09T00:40:30.137Z,35.25
2023-09-09T00:42:57.788Z,35.28
2023-09-09T00:45:27.153Z,35.48
2023-09-09T00:47:56.362Z,35.61
2023-09-09T00:50:24.649Z,35.73
2023-09-09T00:52:52.272Z,36.03
2023-09-09T00:55:20.096Z,35.87
2023-09-09T00:57:47.756Z,36.10
2023-09-09T01:00:15.816Z,35.92
2023-09-09T01:02:43.634Z,35.88
2023-09-09T01:05:11.742Z,35.96
2023-09-09T01:07:46.391Z,36.20
2023-09-09T01:10:15.888Z,36.18
2023-09-09T01:12:43.586Z,36.35
2023-09-09T01:15:11.948Z,36.25
2023-09-09T01:17:39.860Z,36.35
2023-09-09T01:20:10.968Z,36.28
2023-09-09T01:22:38.670Z,36.06
2023-09-09T01:25:06.788Z,36.18
2023-09-09T01:27:34.718Z,36.02
2023-09-09T01:30:02.366Z,36.06
2023-09-09T01:32:30.135Z,35.92
2023-09-09T01:34:59.196Z,35.94
2023-09-09T01:37:27.510Z,36.03
2023-09-09T01:39:55.401Z,36.15
2023-09-09T01:42:23.130Z,35.97
2023-09-09T01:44:51.154Z,36.07
2023-09-09T01:47:18.761Z,36.01
2023-09-09T01:49:46.606Z,35.84
2023-09-09T01:52:14.251Z,35.86
2023-09-09T01:54:42.073Z,36.30
2023-09-09T01:57:09.703Z,36.56
2023-09-09T01:59:37.650Z,36.72
2023-09-09T02:02:05.370Z,36.88
2023-09-09T02:04:33.086Z,36.82
2023-09-09T02:07:00.660Z,37.08
2023-09-09T02:09:28.308Z,37.03
2023-09-09T02:11:55.937Z,36.89
2023-09-09T02:14:24.553Z,37.24
2023-09-09T02:16:52.247Z,37.34
2023-09-09T02:19:19.878Z,37.42
2023-09-09T02:21:47.656Z,37.40
2023-09-09T02:24:15.642Z,37.53
2023-09-09T02:26:43.262Z,37.41
2023-09-09T02:29:10.901Z,37.39
2023-09-09T02:31:38.538Z,37.54
2023-09-09T02:34:06.268Z,37.25
2023-09-09T02:36:33.987Z,37.38
2023-09-09T02:39:01.875Z,37.38
2023-09-09T02:41:30.763Z,37.48
2023-09-09T02:43:58.388Z,37.40
2023-09-09T02:46:26.346Z,37.36
2023-09-09T02:48:54.051Z,37.31
2023-09-09T02:51:21.777Z,37.51
2023-09-09T02:53:49.418Z,37.40
2023-09-09T02:56:17.348Z,37.59
2023-09-09T02:58:45.112Z,37.75
2023-09-09T03:01:13.010Z,37.65
2023-09-09T03:03:40.984Z,37.57
2023-09-09T03:06:11.695Z,37.47
2023-09-09T03:08:39.449Z,37.50
2023-09-09T03:11:07.184Z,37.35
2023-09-09T03:13:35.463Z,37.29
2023-09-09T03:16:05.116Z,37.45
2023-09-09T03:18:33.153Z,37.45
2023-09-09T03:21:01.061Z,37.67
2023-09-09T03:23:28.745Z,37.76
2023-09-09T03:25:56.451Z,37.77
2023-09-09T03:28:24.224Z,37.73
2023-09-09T03:30:59.649Z,37.68
2023-09-09T03:33:29.717Z,37.87
2023-09-09T03:35:57.427Z,37.73
2023-09-09T03:38:25.113Z,37.72
2023-09-09T03:40:52.848Z,37.33
2023-09-09T03:43:20.720Z,37.30
2023-09-09T03:45:54.186Z,37.07
2023-09-09T03:48:22.082Z,36.89
2023-09-09T03:50:49.858Z,36.63
2023-09-09T03:53:17.675Z,36.45
2023-09-09T03:55:45.550Z,36.31
2023-09-09T03:58:13.265Z,35.35
2023-09-09T04:00:41.044Z,34.96
2023-09-09T04:03:10.151Z,34.45
2023-09-09T04:05:37.968Z,33.98
2023-09-09T04:08:10.518Z,33.39
2023-09-09T04:10:38.455Z,33.00
2023-09-09T04:13:07.066Z,32.31
2023-09-09T04:15:35.102Z,31.76
2023-09-09T04:18:02.929Z,31.21
2023-09-09T04:20:30.677Z,30.51
2023-09-09T04:22:58.783Z,30.27
2023-09-09T04:25:27.573Z,29.53
2023-09-09T04:27:56.977Z,29.05
2023-09-09T04:30:24.779Z,28.80
2023-09-09T04:32:52.664Z,27.85
2023-09-09T04:35:20.546Z,27.19
2023-09-09T04:37:51.442Z,26.67
2023-09-09T04:40:20.854Z,26.07
2023-09-09T04:42:48.940Z,25.56
2023-09-09T04:45:16.850Z,24.96
2023-09-09T04:47:44.784Z,24.58
2023-09-09T04:50:13.141Z,24.19
2023-09-09T04:52:41.263Z,23.63
2023-09-09T04:55:09.558Z,23.39
2023-09-09T04:57:37.367Z,22.98
2023-09-09T05:00:08.394Z,22.39
2023-09-09T05:02:37.804Z,21.88
2023-09-09T05:05:07.062Z,21.80
2023-09-09T05:07:37.052Z,21.25
2023-09-09T05:10:07.828Z,21.21
2023-09-09T05:12:40.121Z,20.87
2023-09-09T05:15:11.569Z,20.29
2023-09-09T05:17:40.140Z,19.91
2023-09-09T05:20:08.990Z,19.64
2023-09-09T05:22:38.111Z,19.34
2023-09-09T05:25:06.718Z,18.98
2023-09-09T05:27:34.550Z,18.74
2023-09-09T05:30:02.473Z,18.66
2023-09-09T05:32:31.228Z,18.49
2023-09-09T05:34:59.420Z,18.39
2023-09-09T05:37:27.927Z,18.06
2023-09-09T05:39:56.032Z,17.84
2023-09-09T05:42:24.837Z,17.93
2023-09-09T05:44:53.145Z,17.50
2023-09-09T05:47:21.689Z,17.54
2023-09-09T05:49:50.636Z,17.35
2023-09-09T05:52:18.850Z,17.27
2023-09-09T05:54:46.788Z,17.22
2023-09-09T05:57:14.784Z,16.95
2023-09-09T05:59:42.958Z,17.03
2023-09-09T06:02:13.102Z,16.63
2023-09-09T06:04:41.283Z,16.48
2023-09-09T06:07:09.584Z,16.45
2023-09-09T06:09:37.459Z,16.06
2023-09-09T06:12:05.928Z,16.39
2023-09-09T06:14:34.320Z,16.25
2023-09-09T06:17:03.934Z,16.17
2023-09-09T06:19:32.011Z,16.08
2023-09-09T06:22:00.081Z,15.77
2023-09-09T06:24:28.977Z,15.74
2023-09-09T06:26:57.841Z,16.13
2023-09-09T06:29:27.464Z,16.24
2023-09-09T06:31:55.834Z,16.13
2023-09-09T06:34:24.099Z,15.55
2023-09-09T06:36:52.317Z,15.57
2023-09-09T06:39:21.169Z,15.74
2023-09-09T06:41:51.887Z,16.45
2023-09-09T06:44:26.627Z,16.43
2023-09-09T06:46:57.883Z,16.92
2023-09-09T06:49:27.916Z,16.66
2023-09-09T06:51:57.783Z,16.86
2023-09-09T06:54:27.899Z,16.48
2023-09-09T06:56:58.923Z,16.71
2023-09-09T06:59:28.943Z,16.60
2023-09-09T07:01:59.242Z,16.59
2023-09-09T07:04:29.997Z,16.76
2023-09-09T07:07:12.022Z,16.90
2023-09-09T07:09:44.964Z,17.01
2023-09-09T07:12:15.435Z,17.60
2023-09-09T07:14:46.017Z,17.52
2023-09-09T07:17:16.969Z,17.62
2023-09-09T07:19:47.942Z,17.71
2023-09-09T07:22:18.794Z,17.90
2023-09-09T07:24:49.462Z,17.71
2023-09-09T07:27:19.971Z,18.04
2023-09-09T07:29:50.996Z,18.01
2023-09-09T07:32:23.561Z,18.17
2023-09-09T07:34:53.977Z,18.80
2023-09-09T07:37:23.882Z,19.11
2023-09-09T07:47:17.556Z,20.06
2023-09-09T07:57:25.732Z,22.03
2023-09-09T07:59:53.566Z,22.65
2023-09-09T08:02:21.248Z,22.74
2023-09-09T08:04:49.057Z,23.09
2023-09-09T08:07:16.799Z,23.20
2023-09-09T08:09:44.909Z,23.60
2023-09-09T08:12:12.825Z,23.73
2023-09-09T08:14:42.646Z,23.70
2023-09-09T08:17:10.737Z,23.91
2023-09-09T08:19:38.621Z,23.69
2023-09-09T08:22:06.735Z,23.74
2023-09-09T08:24:34.637Z,23.76
2023-09-09T08:27:02.569Z,23.76
2023-09-09T08:29:30.463Z,23.82
2023-09-09T08:31:58.391Z,23.86
2023-09-09T08:34:26.712Z,24.59
2023-09-09T08:36:54.375Z,25.14
2023-09-09T08:39:22.656Z,24.94
2023-09-09T08:42:15.117Z,24.84
2023-09-09T08:45:20.216Z,24.94
2023-09-09T08:55:30.447Z,23.54
2023-09-09T08:57:58.425Z,23.16
2023-09-09T09:00:31.557Z,22.88
2023-09-09T09:02:59.179Z,22.70
2023-09-09T09:05:27.421Z,22.58
2023-09-09T09:07:57.323Z,22.19
2023-09-09T09:10:26.782Z,22.56
2023-09-09T09:12:55.058Z,22.60
2023-09-09T09:15:23.259Z,22.47
2023-09-09T09:25:22.322Z,22.54
2023-09-09T09:35:35.523Z,21.80
2023-09-09T09:38:07.396Z,21.89
2023-09-09T09:40:36.633Z,22.04
2023-09-09T09:43:04.755Z,22.16
2023-09-09T09:47:06.279Z,23.43
2023-09-09T09:49:38.213Z,22.50
2023-09-09T09:52:25.703Z,22.17
2023-09-09T09:54:54.570Z,22.13
2023-09-09T09:57:23.140Z,21.66
2023-09-09T09:59:51.113Z,21.53
2023-09-09T10:02:38.169Z,21.74
2023-09-09T10:05:06.725Z,21.38
2023-09-09T10:07:34.958Z,21.31
2023-09-09T10:10:10.560Z,21.37
2023-09-09T10:12:53.985Z,21.50
2023-09-09T10:15:22.806Z,21.59
2023-09-09T10:17:52.252Z,21.60
2023-09-09T10:20:22.006Z,21.96
2023-09-09T10:22:51.416Z,21.65
2023-09-09T10:25:19.949Z,21.34
2023-09-09T10:27:47.822Z,21.30
2023-09-09T10:30:15.614Z,21.46
2023-09-09T10:32:43.456Z,21.24
2023-09-09T10:35:11.580Z,21.12
2023-09-09T10:37:39.551Z,21.20
2023-09-09T10:40:09.263Z,20.73
2023-09-09T10:42:41.251Z,20.78
2023-09-09T10:45:25.370Z,21.02
2023-09-09T10:55:37.524Z,21.02
2023-09-09T10:58:08.040Z,21.13
2023-09-09T11:00:43.036Z,21.38
2023-09-09T11:03:23.500Z,21.29
2023-09-09T11:05:59.004Z,21.51
2023-09-09T11:08:37.215Z,21.32
2023-09-09T11:11:10.963Z,21.51
2023-09-09T11:13:43.114Z,21.29
2023-09-09T11:16:36.301Z,21.44
2023-09-09T11:19:11.940Z,21.92
2023-09-09T11:21:41.461Z,22.17
2023-09-09T11:24:09.706Z,21.61
2023-09-09T11:26:44.494Z,21.21
2023-09-09T11:29:21.488Z,22.11
2023-09-09T11:31:57.797Z,22.14
2023-09-09T11:34:33.528Z,22.08
2023-09-09T11:37:02.686Z,21.73
2023-09-09T11:39:30.565Z,21.47
2023-09-09T11:41:58.237Z,21.04
2023-09-09T11:44:25.914Z,21.38
2023-09-09T11:46:53.645Z,21.52
2023-09-09T11:49:21.567Z,21.13
2023-09-09T11:51:49.201Z,21.21
2023-09-09T11:54:21.285Z,21.52
2023-09-09T11:56:49.147Z,21.54
2023-09-09T11:59:16.981Z,21.34
2023-09-09T12:01:45.829Z,21.25
2023-09-09T12:04:16.938Z,21.29
2023-09-09T12:06:46.754Z,21.30
2023-09-09T12:09:15.278Z,21.30
2023-09-09T12:11:43.195Z,20.96
2023-09-09T12:14:14.168Z,21.00
2023-09-09T12:16:41.961Z,21.17
2023-09-09T12:19:14.919Z,21.27
2023-09-09T12:21:46.731Z,21.23
2023-09-09T12:24:14.510Z,21.33
2023-09-09T12:26:51.590Z,21.16
2023-09-09T12:29:19.357Z,20.87
2023-09-09T12:31:58.592Z,20.60
2023-09-09T12:34:27.171Z,20.37
2023-09-09T12:41:45.460Z,20.92
2023-09-09T12:44:13.108Z,21.20
2023-09-09T12:46:40.795Z,21.27
2023-09-09T12:49:08.553Z,21.15
2023-09-09T12:51:38.909Z,21.12
2023-09-09T12:54:06.636Z,20.90
2023-09-09T12:56:34.388Z,20.83
2023-09-09T12:59:02.157Z,20.77
2023-09-09T13:01:29.875Z,20.65
2023-09-09T13:03:57.632Z,20.24
2023-09-09T13:06:25.265Z,20.39
2023-09-09T13:08:53.100Z,20.34
2023-09-09T13:11:20.874Z,19.95
2023-09-09T13:13:48.551Z,20.06
2023-09-09T13:16:16.943Z,20.42
2023-09-09T13:18:44.961Z,20.31
2023-09-09T13:21:12.792Z,20.25
2023-09-09T13:23:40.724Z,20.23
2023-09-09T13:26:08.579Z,20.34
2023-09-09T13:28:36.261Z,20.29
2023-09-09T13:31:04.167Z,20.22
2023-09-09T13:33:31.864Z,20.27
2023-09-09T13:36:01.524Z,20.38
2023-09-09T13:38:30.292Z,20.30
2023-09-09T13:40:58.251Z,20.34
2023-09-09T13:43:26.378Z,20.33
2023-09-09T13:45:55.303Z,20.55
2023-09-09T13:48:23.833Z,20.58
2023-09-09T13:50:51.858Z,20.67
2023-09-09T13:53:19.629Z,20.66
2023-09-09T13:55:47.373Z,20.82
2023-09-09T13:58:15.009Z,20.81
2023-09-09T14:00:42.815Z,20.69
2023-09-09T14:03:10.651Z,20.51
2023-09-09T14:05:38.443Z,20.82
2023-09-09T14:08:06.343Z,20.74
2023-09-09T14:10:35.127Z,20.95
2023-09-09T14:13:02.788Z,20.98
2023-09-09T14:15:32.509Z,20.90
2023-09-09T14:18:00.444Z,21.03
2023-09-09T14:20:28.119Z,20.99
2023-09-09T14:22:55.840Z,21.01
2023-09-09T14:25:23.520Z,21.11
2023-09-09T14:27:51.140Z,21.02
2023-09-09T14:30:19.028Z,21.10
2023-09-09T14:32:46.864Z,20.93
2023-09-09T14:35:14.627Z,20.85
2023-09-09T14:37:42.273Z,20.80
2023-09-09T14:40:10.515Z,20.95
2023-09-09T14:42:39.712Z,20.89
2023-09-09T14:45:08.184Z,21.18
2023-09-09T14:47:35.840Z,21.15
2023-09-09T14:50:04.401Z,21.33
2023-09-09T14:52:32.160Z,21.17
2023-09-09T14:54:59.842Z,21.19
2023-09-09T14:57:27.655Z,21.16
2023-09-09T14:59:55.744Z,21.29
2023-09-09T15:02:24.722Z,21.25
2023-09-09T15:04:52.524Z,21.08
2023-09-09T15:07:21.722Z,21.38
2023-09-09T15:09:49.792Z,21.42
2023-09-09T15:12:17.521Z,21.16
2023-09-09T15:14:45.229Z,21.08
2023-09-09T15:17:13.189Z,21.21
2023-09-09T15:19:41.045Z,21.33
2023-09-09T15:22:09.788Z,21.36
2023-09-09T15:24:37.446Z,21.48
2023-09-09T15:27:05.400Z,21.54
2023-09-09T15:29:33.429Z,21.47
2023-09-09T15:32:01.187Z,21.48
2023-09-09T15:34:29.004Z,21.52
2023-09-09T15:36:56.756Z,21.67
2023-09-09T15:39:24.418Z,21.95
2023-09-09T15:41:52.180Z,21.90
2023-09-09T15:44:19.934Z,21.79
2023-09-09T15:46:47.768Z,21.83
2023-09-09T15:49:18.281Z,22.09
2023-09-09T15:51:46.614Z,22.07
2023-09-09T15:54:14.886Z,22.16
2023-09-09T15:56:42.730Z,22.25
2023-09-09T15:59:10.518Z,22.53
2023-09-09T16:01:38.735Z,22.63
2023-09-09T16:04:06.764Z,22.59
2023-09-09T16:06:34.665Z,22.65
2023-09-09T16:09:03.708Z,22.76
2023-09-09T16:11:31.436Z,22.71
2023-09-09T16:14:02.203Z,22.81
2023-09-09T16:16:30.187Z,22.99
2023-09-09T16:18:57.999Z,22.95
2023-09-09T16:21:25.782Z,23.06
2023-09-09T16:23:53.638Z,23.10
2023-09-09T16:26:21.897Z,22.87
2023-09-09T16:28:50.072Z,23.21
2023-09-09T16:31:18.097Z,23.15
2023-09-09T16:33:45.881Z,23.35
2023-09-09T16:36:13.771Z,23.23
2023-09-09T16:38:41.790Z,23.58
2023-09-09T16:41:09.809Z,23.57
2023-09-09T16:43:39.356Z,23.72
2023-09-09T16:46:07.338Z,23.70
2023-09-09T16:48:35.358Z,23.81
2023-09-09T16:51:04.047Z,24.14
2023-09-09T16:53:32.963Z,24.11
2023-09-09T16:56:02.833Z,24.24
2023-09-09T16:58:31.534Z,24.39
2023-09-09T17:00:59.894Z,24.45
2023-09-09T17:03:28.060Z,24.68
2023-09-09T17:05:58.066Z,24.86
2023-09-09T17:08:28.657Z,24.71
2023-09-09T17:10:56.710Z,24.75
2023-09-09T17:13:24.562Z,24.88
2023-09-09T17:15:52.735Z,25.17
2023-09-09T17:18:21.653Z,25.04
2023-09-09T17:20:51.586Z,25.17
2023-09-09T17:23:19.672Z,25.27
2023-09-09T17:25:47.806Z,25.30
2023-09-09T17:28:16.465Z,25.16
2023-09-09T17:30:44.919Z,25.36
2023-09-09T17:33:13.875Z,25.70
2023-09-09T17:35:43.214Z,25.87
2023-09-09T17:38:11.050Z,26.28
2023-09-09T17:40:41.523Z,26.47
2023-09-09T17:43:12.555Z,26.82
2023-09-09T17:45:43.608Z,27.13
2023-09-09T17:48:15.372Z,27.28
2023-09-09T17:50:45.859Z,27.61
2023-09-09T17:53:16.853Z,27.65
2023-09-09T17:55:47.950Z,27.47
2023-09-09T17:58:19.269Z,27.36
2023-09-09T18:00:49.980Z,27.08
2023-09-09T18:03:20.914Z,27.04
2023-09-09T18:05:51.260Z,27.00
2023-09-09T18:08:21.924Z,26.78
2023-09-09T18:10:53.272Z,26.71
2023-09-09T18:13:22.691Z,26.64
2023-09-09T18:15:53.918Z,27.21
2023-09-09T18:18:24.316Z,28.01
2023-09-09T18:20:54.341Z,28.38
2023-09-09T18:23:24.967Z,28.53
2023-09-09T18:25:58.594Z,29.10
2023-09-09T18:28:29.445Z,29.39
2023-09-09T18:31:05.063Z,29.22
2023-09-09T18:33:35.975Z,29.29
2023-09-09T18:36:06.353Z,29.30
2023-09-09T18:38:37.257Z,29.27
2023-09-09T18:47:42.411Z,29.49
2023-09-09T18:50:10.365Z,29.54
2023-09-09T18:52:37.544Z,29.60
2023-09-09T18:55:05.394Z,29.38
2023-09-09T18:57:33.056Z,28.94
2023-09-09T19:00:00.035Z,28.81
2023-09-09T19:02:27.318Z,28.84
2023-09-09T19:04:54.924Z,28.82
2023-09-09T19:07:36.198Z,28.76
2023-09-09T19:10:04.580Z,28.90
2023-09-09T19:12:32.788Z,29.32
2023-09-09T19:15:00.004Z,29.81
2023-09-09T19:17:27.572Z,29.93
2023-09-09T19:19:55.498Z,30.36
2023-09-09T19:22:24.340Z,30.88
2023-09-09T19:24:53.726Z,31.85
2023-09-09T19:27:21.010Z,32.73
2023-09-09T19:29:51.789Z,33.75
2023-09-09T19:32:18.728Z,34.18
2023-09-09T19:34:47.013Z,34.40
2023-09-09T19:37:14.003Z,34.39
2023-09-09T19:39:41.144Z,34.31
2023-09-09T19:42:10.240Z,34.00
2023-09-09T19:44:37.550Z,33.81
2023-09-09T19:47:04.950Z,33.65
2023-09-09T19:49:32.253Z,33.10
2023-09-09T19:51:59.462Z,33.30
2023-09-09T19:54:26.512Z,33.36
2023-09-09T19:56:54.376Z,33.50
2023-09-09T19:59:23.399Z,33.84
2023-09-09T20:01:50.752Z,34.08
2023-09-09T20:04:18.191Z,34.31
2023-09-09T20:06:45.592Z,34.32
2023-09-09T20:09:14.847Z,34.24
2023-09-09T20:11:41.827Z,34.23
2023-09-09T20:14:10.170Z,34.08
2023-09-09T20:16:37.285Z,34.22
2023-09-09T20:19:04.500Z,34.58
2023-09-09T20:21:31.728Z,34.71
2023-09-09T20:23:58.883Z,34.67
2023-09-09T20:26:26.031Z,34.73
2023-09-09T20:28:52.952Z,35.05
2023-09-09T20:31:19.949Z,35.14
2023-09-09T20:33:49.497Z,35.14
2023-09-09T20:36:16.789Z,35.23
2023-09-09T20:38:44.502Z,35.40
2023-09-09T20:41:12.769Z,35.37
2023-09-09T20:43:39.781Z,35.56
2023-09-09T20:46:10.827Z,35.62
2023-09-09T20:48:38.781Z,35.53
2023-09-09T20:51:06.111Z,35.32
2023-09-09T20:53:35.988Z,35.17
2023-09-09T20:56:12.894Z,35.04
2023-09-09T20:58:41.037Z,35.56
2023-09-09T21:01:08.697Z,35.83
2023-09-09T21:03:36.068Z,35.92
2023-09-09T21:06:03.690Z,35.94
2023-09-09T21:08:31.053Z,35.86
2023-09-09T21:10:58.209Z,35.82
2023-09-09T21:13:25.889Z,35.56
2023-09-09T21:15:54.260Z,35.50
2023-09-09T21:18:21.141Z,35.67
2023-09-09T21:20:48.159Z,36.34
2023-09-09T21:23:15.374Z,36.64
2023-09-09T21:25:42.509Z,36.49
2023-09-09T21:28:09.324Z,36.74
2023-09-09T21:30:37.703Z,36.78
2023-09-09T21:33:06.026Z,36.64
2023-09-09T21:35:33.213Z,36.70
2023-09-09T21:38:00.354Z,36.82
2023-09-09T21:40:27.886Z,36.94
2023-09-09T21:42:55.387Z,37.27
2023-09-09T21:45:24.400Z,37.22
2023-09-09T21:47:52.135Z,37.30
2023-09-09T21:50:19.349Z,37.43
2023-09-09T21:52:47.510Z,37.22
2023-09-09T21:55:16.561Z,37.10
2023-09-09T21:57:43.625Z,36.84
2023-09-09T22:00:22.347Z,36.68
2023-09-09T22:04:56.865Z,38.92
2023-09-09T22:07:24.858Z,37.29
2023-09-09T22:09:52.639Z,37.11
2023-09-09T22:12:20.485Z,37.32
2023-09-09T22:14:48.389Z,37.31
2023-09-09T22:17:16.279Z,37.45
2023-09-09T22:19:44.542Z,37.51
2023-09-09T22:22:13.156Z,37.36
2023-09-09T22:24:40.984Z,37.28
2023-09-09T22:27:08.928Z,37.17
2023-09-09T22:29:36.815Z,37.04
2023-09-09T22:32:05.489Z,37.01
2023-09-09T22:41:49.814Z,37.05
2023-09-09T22:51:49.767Z,36.40
2023-09-09T22:54:17.577Z,36.37
2023-09-09T22:56:45.395Z,36.32
2023-09-09T23:06:10.764Z,36.39
2023-09-09T23:08:38.887Z,36.54
2023-09-09T23:18:50.581Z,36.78
2023-09-09T23:21:19.592Z,36.86
2023-09-09T23:23:48.306Z,36.89
2023-09-09T23:34:00.466Z,36.97
2023-09-09T23:36:28.606Z,36.90
2023-09-09T23:38:56.351Z,37.04
2023-09-09T23:41:24.075Z,36.99
2023-09-09T23:43:51.814Z,37.11
2023-09-09T23:46:19.665Z,37.06
2023-09-09T23:48:47.506Z,37.09
2023-09-09T23:51:15.352Z,37.15
2023-09-09T23:53:43.182Z,37.39
2023-09-09T23:56:10.999Z,37.52
2023-09-09T23:58:38.971Z,37.59
